Southern California Logo

Simi Valley, CA Single Family Real Estate Listings

367 Total Real Estate Listings * Click on table heading to sort
Date Posted Property Type Style Address Price Living Area Lot Size Price/Sq Ft.
2017-08-16 Single Family Ranch 838 France Avenue Simi Valley, CA 93065 $475,000 1,196 sq. ft. 7,841 sq. ft. $397
2017-08-16 Single Family 115 Parkside Drive Simi Valley, CA 93065 $739,000 2,465 sq. ft. 4,356 sq. ft. $300
2017-08-16 Single Family 1378 Pride Street Simi Valley, CA 93065 $540,000 1,612 sq. ft. 10,019 sq. ft. $335
2017-08-16 Single Family 4179 Gertrude Street Simi Valley, CA 93063 $649,000 1,964 sq. ft. 6,970 sq. ft. $330
2017-08-16 Single Family 1706 Alexander Street Simi Valley, CA 93065 $530,000 1,227 sq. ft. 7,841 sq. ft. $432
2017-08-16 Single Family 1505 Windmill Way Simi Valley, CA 93065 $615,000 2,133 sq. ft. 3,485 sq. ft. $288
2017-08-16 Single Family Traditional 2242 Brower Street Simi Valley, CA 93065 $539,000 2,015 sq. ft. 6,534 sq. ft. $267
2017-08-15 Single Family 1744 Bluesage Court Simi Valley, CA 93065 $989,000 3,613 sq. ft. 7,841 sq. ft. $274
2017-08-15 Single Family Contemporary 2534 Calla Lily Court Simi Valley, CA 93063 $729,000 2,616 sq. ft. 3,920 sq. ft. $279
2017-08-15 Single Family 1609 Darrah Avenue Simi Valley, CA 93063 $534,900 1,661 sq. ft. 6,534 sq. ft. $322
2017-08-15 Single Family Contemporary 2076 Vera Court Simi Valley, CA 93063 $494,900 1,152 sq. ft. 6,970 sq. ft. $430
2017-08-15 Single Family 2421 Orangewood Place Simi Valley, CA 93065 $525,000 1,470 sq. ft. 4,792 sq. ft. $357
2017-08-15 Single Family Traditional 525 Fairfield Road Simi Valley, CA 93065 $639,900 1,716 sq. ft. 4,792 sq. ft. $373
2017-08-14 Single Family 2598 Parkdale Avenue Simi Valley, CA 93063 $519,000 1,787 sq. ft. 9,148 sq. ft. $290
2017-08-14 Single Family 2798 Machado Street Simi Valley, CA 93065 $575,000 1,998 sq. ft. 8,276 sq. ft. $288
2017-08-14 Single Family 3276 Texas Avenue Simi Valley, CA 93063 $699,000 1,891 sq. ft. 9,148 sq. ft. $370
2017-08-14 Single Family 1841 Duncan Street Simi Valley, CA 93065 $424,999 958 sq. ft. 6,970 sq. ft. $444
2017-08-14 Single Family Spanish Colonial 5384 Rainwood Street Simi Valley, CA 93063 $419,990 1,270 sq. ft. 871 sq. ft. $331
2017-08-14 Single Family Mediterranean 4102 Eagle Flight Drive Simi Valley, CA 93065 $995,000 4,461 sq. ft. 9,148 sq. ft. $223
2017-08-13 Single Family 1887 Day Lily Lane Simi Valley, CA 93065 $515,000 1,480 sq. ft. 1,742 sq. ft. $348
2017-08-13 Single Family 2778 Avenida Simi Simi Valley, CA 93065 $899,000 3,123 sq. ft. 23,522 sq. ft. $288
2017-08-12 Single Family Traditional 2024 Plato Court Simi Valley, CA 93065 $539,000 1,205 sq. ft. 9,148 sq. ft. $447
2017-08-12 Single Family Contemporary 759 Twin Peaks Simi Valley, CA 93065 $710,000 1,950 sq. ft. 4,792 sq. ft. $364
2017-08-12 Single Family Ranch 1902 Larch Street Simi Valley, CA 93065 $539,900 1,787 sq. ft. 6,534 sq. ft. $302
2017-08-12 Single Family Traditional 616 Azure Hills Drive Simi Valley, CA 93065 $750,000 2,407 sq. ft. 8,276 sq. ft. $312
2017-08-12 Single Family 2249 Desert Creek Avenue Simi Valley, CA 93063 $725,000 2,514 sq. ft. 6,970 sq. ft. $288
2017-08-11 Single Family 6469 Summitt Village Simi Valley, CA 93063 $735,000 2,242 sq. ft. $328
2017-08-11 Single Family 2391 Boalt Avenue Simi Valley, CA 93063 $499,000 1,160 sq. ft. 5,663 sq. ft. $430
2017-08-11 Single Family 2773 Carlmont Place Simi Valley, CA 93065 $559,900 1,499 sq. ft. 6,534 sq. ft. $374
2017-08-11 Single Family 1108 Tivoli Lane Simi Valley, CA 93065 $369,900 1,164 sq. ft. 436 sq. ft. $318
2017-08-10 Single Family 729 Cranmont Court Simi Valley, CA 93065 $789,500 2,577 sq. ft. 6,098 sq. ft. $306
2017-08-10 Single Family 2409 Royal Avenue Simi Valley, CA 93065 $510,000 1,818 sq. ft. 6,534 sq. ft. $281
2017-08-10 Single Family Traditional 1983 Clarkia Street Simi Valley, CA 93065 $875,000 3,712 sq. ft. 10,454 sq. ft. $236
2017-08-10 Single Family 6093 Nevelson Lane Simi Valley, CA 93063 $399,000 1,440 sq. ft. 1,742 sq. ft. $277
2017-08-10 Single Family 889 Muirfield Avenue Simi Valley, CA 93065 $549,000 1,265 sq. ft. 6,534 sq. ft. $434
2017-08-10 Single Family 2661 Belburn Place Simi Valley, CA 93065 $649,950 2,098 sq. ft. 6,534 sq. ft. $310
2017-08-10 Single Family Traditional 2741 Broadmoor Avenue Simi Valley, CA 93065 $515,000 1,664 sq. ft. 6,534 sq. ft. $309
2017-08-10 Single Family 167 Park Hill Road Simi Valley, CA 93065 $739,000 2,465 sq. ft. 4,356 sq. ft. $300
2017-08-10 Single Family 5794 Katherine Street Simi Valley, CA 93063 $534,900 1,835 sq. ft. 7,405 sq. ft. $291
2017-08-10 Single Family 3386 Amarillo Avenue Simi Valley, CA 93063 $559,000 1,434 sq. ft. 8,276 sq. ft. $390
2017-08-10 Single Family 304 Misty Falls Court Simi Valley, CA 93065 $679,950 2,495 sq. ft. 5,663 sq. ft. $273
2017-08-10 Single Family 863 Thornwood Street Simi Valley, CA 93065 $599,000 1,430 sq. ft. 7,405 sq. ft. $419
2017-08-10 Single Family Traditional 5620 Shoshone Street Simi Valley, CA 93063 $745,000 2,508 sq. ft. 13,939 sq. ft. $297
2017-08-09 Single Family 963 Vallejo Avenue Simi Valley, CA 93065 $415,000 1,001 sq. ft. 3,485 sq. ft. $415
2017-08-09 Single Family Traditional 502 Shadow Lane Simi Valley, CA 93065 $745,000 2,165 sq. ft. 4,792 sq. ft. $344
2017-08-09 Single Family Ranch 1337 Durham Street Simi Valley, CA 93065 $537,000 1,350 sq. ft. 8,712 sq. ft. $398
2017-08-09 Single Family 2226 Ecroyd Avenue Simi Valley, CA 93063 $637,000 1,826 sq. ft. 6,534 sq. ft. $349
2017-08-09 Single Family 824 Greenbriar Avenue Simi Valley, CA 93065 $549,000 1,771 sq. ft. 8,712 sq. ft. $310
2017-08-09 Single Family Ranch 3394 Bryan Avenue Simi Valley, CA 93063 $554,950 1,602 sq. ft. 9,148 sq. ft. $346
2017-08-08 Single Family 1562 Sutter Avenue Simi Valley, CA 93065 $450,000 1,248 sq. ft. 7,841 sq. ft. $361
2017-08-08 Single Family 2607 Shrubwood Circle Simi Valley, CA 93065 $559,900 1,153 sq. ft. 6,970 sq. ft. $486
2017-08-08 Single Family Traditional 617 Carnellon Court Simi Valley, CA 93065 $999,990 3,506 sq. ft. 11,761 sq. ft. $285
2017-08-08 Single Family 134 Silverlake Court Simi Valley, CA 93065 $615,200 1,800 sq. ft. 5,663 sq. ft. $342
2017-08-08 Single Family Tuscan 2645 Bloom Street Simi Valley, CA 93063 $700,000 2,192 sq. ft. 5,663 sq. ft. $319
2017-08-08 Single Family 3306 Cole Avenue Simi Valley, CA 93063 $619,900 1,247 sq. ft. 10,454 sq. ft. $497
2017-08-08 Single Family Contemporary 2318 Clover Street Simi Valley, CA 93065 $369,000 1,318 sq. ft. 6,098 sq. ft. $280
2017-08-08 Single Family 1307 Mellow Lane Simi Valley, CA 93065 $899,000 2,460 sq. ft. 37,026 sq. ft. $365
2017-08-08 Single Family Mediterranean; Modern 114 Park Hill Road Simi Valley, CA 93065 $739,000 2,465 sq. ft. 5,227 sq. ft. $300
2017-08-08 Single Family 1913 Darrah Avenue Simi Valley, CA 93063 $549,000 1,661 sq. ft. 6,970 sq. ft. $331
2017-08-08 Single Family 1934 Winterdew Avenue Simi Valley, CA 93065 $739,000 2,571 sq. ft. 5,663 sq. ft. $287
2017-08-07 Single Family 4263 Goldstone Lane Simi Valley, CA 93065 $1,200,000 4,267 sq. ft. 17,860 sq. ft. $281
2017-08-07 Single Family 1706 Alexander Street Simi Valley, CA 93065 $530,000 1,227 sq. ft. 7,841 sq. ft. $432
2017-08-07 Single Family 3449 Lockwood Court Simi Valley, CA 93063 $324,900 998 sq. ft. 871 sq. ft. $326
2017-08-06 Single Family 4977 Alta Street Simi Valley, CA 93063 $534,950 1,596 sq. ft. 6,970 sq. ft. $335
2017-08-06 Single Family 5397 Maricopa Drive Simi Valley, CA 93063 $735,000 2,508 sq. ft. 8,712 sq. ft. $293
2017-08-05 Single Family Traditional 2288 Larch Street Simi Valley, CA 93065 $624,995 2,015 sq. ft. 6,534 sq. ft. $310
2017-08-05 Single Family Spanish 897 Congressional Road Simi Valley, CA 93065 $659,000 1,853 sq. ft. 4,356 sq. ft. $356
2017-08-05 Single Family Traditional 1829 Brookberry Lane Simi Valley, CA 93065 $515,000 1,480 sq. ft. 2,178 sq. ft. $348
2017-08-05 Single Family 1934 Rory Lane Simi Valley, CA 93063 $409,900 1,287 sq. ft. 436 sq. ft. $318
2017-08-04 Single Family Ranch 1634 Ballard Street Simi Valley, CA 93065 $475,000 1,227 sq. ft. 7,841 sq. ft. $387
2017-08-04 Single Family 2035 Bolivar Court Simi Valley, CA 93063 $480,000 1,108 sq. ft. 5,227 sq. ft. $433
2017-08-04 Single Family 1828 Fred Avenue Simi Valley, CA 93065 $529,999 1,465 sq. ft. 6,534 sq. ft. $362
2017-08-04 Single Family Traditional 2486 Stow Street Simi Valley, CA 93063 $499,977 1,992 sq. ft. 3,049 sq. ft. $251
2017-08-04 Single Family 812 Links View Drive Simi Valley, CA 93065 $699,000 1,853 sq. ft. 7,405 sq. ft. $377
2017-08-03 Single Family Traditional 2251 Graceland Street Simi Valley, CA 93065 $610,000 2,695 sq. ft. 6,970 sq. ft. $226
2017-08-03 Single Family 4191 Angela Street Simi Valley, CA 93063 $475,000 1,080 sq. ft. 8,276 sq. ft. $440
2017-08-03 Single Family 3466 Highwood Court Simi Valley, CA 93063 $335,000 998 sq. ft. 871 sq. ft. $336
2017-08-03 Single Family Ranch 2005 Belhaven Avenue Simi Valley, CA 93063 $579,900 1,554 sq. ft. 6,534 sq. ft. $373
2017-08-03 Single Family 558 Rustic Hills Drive Simi Valley, CA 93065 $1,160,000 4,005 sq. ft. 13,068 sq. ft. $290
2017-08-02 Single Family 1826 Royal Avenue Simi Valley, CA 93065 $480,000 1,228 sq. ft. 8,276 sq. ft. $391
2017-08-02 Single Family 1533 Downing Street Simi Valley, CA 93065 $599,000 1,943 sq. ft. 7,841 sq. ft. $308
2017-08-02 Single Family Traditional 5559 California Oak Street Simi Valley, CA 93063 $779,900 3,093 sq. ft. 10,454 sq. ft. $252
2017-08-02 Single Family Ranch 2210 Trinway Avenue Simi Valley, CA 93065 $539,900 1,590 sq. ft. 6,534 sq. ft. $340
2017-08-02 Single Family 1874 Hubbard Street Simi Valley, CA 93065 $699,000 10,890 sq. ft.
2017-08-02 Single Family 5508 Geoffrey Avenue Simi Valley, CA 93063 $648,950 1,719 sq. ft. 6,534 sq. ft. $378
2017-08-02 Single Family 2093 Sheridan Court Simi Valley, CA 93065 $597,500 2,134 sq. ft. 9,583 sq. ft. $280
2017-08-02 Single Family 1872 Morley Street Simi Valley, CA 93065 $489,000 1,205 sq. ft. 6,534 sq. ft. $406
2017-08-02 Single Family 1658 Pinesong Lane Simi Valley, CA 93065 $555,000 1,547 sq. ft. 3,920 sq. ft. $359
2017-08-01 Single Family 274 Aristotle Street Simi Valley, CA 93065 $535,000 1,205 sq. ft. 6,534 sq. ft. $444
2017-08-01 Single Family 2826 Barnes Street Simi Valley, CA 93065 $579,500 1,787 sq. ft. 6,534 sq. ft. $324
2017-08-01 Single Family 5203 Huntley Street Simi Valley, CA 93063 $399,950 1,156 sq. ft. 1,307 sq. ft. $346
2017-08-01 Single Family 1037 King Palm Drive Simi Valley, CA 93065 $779,000 2,958 sq. ft. 6,970 sq. ft. $263
2017-08-01 Single Family Ranch 1860 Wychoff Avenue Simi Valley, CA 93063 $475,000 1,350 sq. ft. 6,970 sq. ft. $352
2017-07-31 Single Family Spanish; Tuscan 443 Stratus Lane Simi Valley, CA 93065 $509,000 1,558 sq. ft. $327
2017-07-31 Single Family 1068 Whitcomb Avenue Simi Valley, CA 93065 $529,000 1,338 sq. ft. 6,970 sq. ft. $395
2017-07-30 Single Family 605 Jubilee Lane Simi Valley, CA 93065 $535,000 1,825 sq. ft. 1,307 sq. ft. $293
2017-07-30 Single Family Traditional 646 Muirfield Avenue Simi Valley, CA 93065 $799,000 2,299 sq. ft. 14,375 sq. ft. $348
2017-07-30 Single Family 2274 Graceland Street Simi Valley, CA 93065 $539,000 2,015 sq. ft. 6,534 sq. ft. $267
2017-07-29 Single Family 2643 Sasha Court Simi Valley, CA 93063 $644,900 1,729 sq. ft. 8,276 sq. ft. $373
2017-07-29 Single Family 1724 Legacy Drive Simi Valley, CA 93065 $910,000 3,460 sq. ft. 6,534 sq. ft. $263
2017-07-28 Single Family 1629 Casarin Avenue Simi Valley, CA 93065 $524,950 1,032 sq. ft. 7,841 sq. ft. $509
2017-07-28 Single Family 2632 Night Jasmine Drive Simi Valley, CA 93065 $519,444 1,785 sq. ft. 1,742 sq. ft. $291
2017-07-28 Single Family 6159 Maple Court Simi Valley, CA 93063 $625,000 1,902 sq. ft. 6,534 sq. ft. $329
2017-07-28 Single Family Contemporary 2306 Clover Street Simi Valley, CA 93065 $473,900 1,054 sq. ft. 6,098 sq. ft. $450
2017-07-28 Single Family Ranch 270 Longbranch Road Simi Valley, CA 93065 $795,000 1,723 sq. ft. 20,038 sq. ft. $461
2017-07-28 Single Family Contemporary 2371 Fernview Street Simi Valley, CA 93065 $545,000 2,015 sq. ft. 6,534 sq. ft. $270
2017-07-28 Single Family Other 2159 Brower Street Simi Valley, CA 93065 $659,900 2,498 sq. ft. 6,534 sq. ft. $264
2017-07-28 Single Family 625 Baywood Lane Simi Valley, CA 93065 $539,000 1,809 sq. ft. $298
2017-07-28 Single Family 5808 Oak Knolls Road Simi Valley, CA 93063 $569,000 2,217 sq. ft. 8,276 sq. ft. $257
2017-07-28 Single Family 104 Ashton Ct Simi Valley, CA 93065 $850,000 3,348 sq. ft. 16,117 sq. ft. $254
2017-07-28 Single Family French Country 509 Bluegrass Street Simi Valley, CA 93065 $899,950 2,310 sq. ft. 20,038 sq. ft. $390
2017-07-27 Single Family Ranch 1574 Acadia Street Simi Valley, CA 93063 $535,000 1,268 sq. ft. 9,583 sq. ft. $422
2017-07-27 Single Family Mediterranean 5577 California Oak Street Simi Valley, CA 93063 $899,900 4,453 sq. ft. 10,019 sq. ft. $202
2017-07-27 Single Family Mediterranean 64 Mollison Drive Simi Valley, CA 93065 $947,500 2,754 sq. ft. 24,829 sq. ft. $344
2017-07-27 Single Family 3003 Gardner Street Simi Valley, CA 93065 $600,000 2,159 sq. ft. 7,405 sq. ft. $278
2017-07-27 Single Family 2895 Barnes Street Simi Valley, CA 93065 $619,000 2,134 sq. ft. 7,405 sq. ft. $290
2017-07-26 Single Family Ranch 1751 Barnes Street Simi Valley, CA 93063 $535,000 1,286 sq. ft. 8,276 sq. ft. $416
2017-07-26 Single Family 3705 Horizon Ridge Court Simi Valley, CA 93063 $1,099,000 4,002 sq. ft. 13,504 sq. ft. $275
2017-07-26 Single Family Bungalow 1079 Lookout Rock Simi Valley, CA 93063 $509,900 874 sq. ft. 8,276 sq. ft. $583
2017-07-26 Single Family 1342 Dinsmore Street Simi Valley, CA 93065 $550,000 1,516 sq. ft. 7,841 sq. ft. $363
2017-07-25 Single Family Traditional 1735 Ballard Street Simi Valley, CA 93065 $539,900 1,227 sq. ft. 7,841 sq. ft. $440
2017-07-25 Single Family Ranch 1216 Rambling Road Simi Valley, CA 93065 $799,950 1,800 sq. ft. 24,394 sq. ft. $444
2017-07-25 Single Family 595 Fresh Meadows Road Simi Valley, CA 93065 $849,950 3,075 sq. ft. 11,326 sq. ft. $276
2017-07-25 Single Family 723 Harper Street Simi Valley, CA 93065 $725,000 2,361 sq. ft. 10,890 sq. ft. $307
2017-07-24 Single Family Ranch 5995 Malton Avenue Simi Valley, CA 93063 $569,000 1,446 sq. ft. 7,405 sq. ft. $393
2017-07-24 Single Family Traditional 3418 Coastal Oak Drive Simi Valley, CA 93065 $764,000 2,465 sq. ft. 9,583 sq. ft. $310
2017-07-24 Single Family 3230 Louise Street Simi Valley, CA 93063 $699,999 2,340 sq. ft. 7,841 sq. ft. $299
2017-07-24 Single Family 5066 Corral Street Simi Valley, CA 93063 $1,095,000 3,349 sq. ft. 13,504 sq. ft. $327
2017-07-24 Single Family Contemporary 1418 Agnew Street Simi Valley, CA 93065 $525,000 1,226 sq. ft. 7,841 sq. ft. $428
2017-07-24 Single Family 2138 Brentwood Street Simi Valley, CA 93063 $549,999 1,650 sq. ft. 6,534 sq. ft. $333
2017-07-24 Single Family Ranch 3938 Frandon Court Simi Valley, CA 93063 $509,000 1,160 sq. ft. 4,792 sq. ft. $439
2017-07-22 Single Family 2044 Pullman Avenue Simi Valley, CA 93063 $585,000 1,719 sq. ft. 5,227 sq. ft. $340
2017-07-22 Single Family 193 Heath Meadow Place Simi Valley, CA 93065 $1,179,000 4,109 sq. ft. 11,326 sq. ft. $287
2017-07-22 Single Family 2406 Greensward Street Simi Valley, CA 93065 $620,000 2,498 sq. ft. 7,405 sq. ft. $248
2017-07-22 Single Family Ranch 809 Margo Drive Simi Valley, CA 93065 $599,900 2,020 sq. ft. 15,246 sq. ft. $297
2017-07-22 Single Family Other 1508 2nd Street Simi Valley, CA 93065 $495,500 1,056 sq. ft. 6,970 sq. ft. $469
2017-07-21 Single Family 5304 Katherine Street Simi Valley, CA 93063 $539,999 1,835 sq. ft. 6,534 sq. ft. $294
2017-07-21 Single Family 5952 Sunflower Street Simi Valley, CA 93063 $649,000 1,886 sq. ft. 5,227 sq. ft. $344
2017-07-21 Single Family 607 Breckenridge Place Simi Valley, CA 93065 $725,000 2,785 sq. ft. 7,405 sq. ft. $260
2017-07-21 Single Family 3359 Onyx Circle Simi Valley, CA 93063 $675,000 2,321 sq. ft. 7,841 sq. ft. $291
2017-07-20 Single Family 1864 Stoneman Street Simi Valley, CA 93065 $585,000 1,664 sq. ft. 9,148 sq. ft. $352
2017-07-20 Single Family 2987 Campa Way Simi Valley, CA 93063 $469,000 1,373 sq. ft. 1,307 sq. ft. $342
2017-07-20 Single Family 5217 Seneca Place Simi Valley, CA 93063 $844,900 2,508 sq. ft. 16,988 sq. ft. $337
2017-07-20 Single Family Traditional 148 Aristotle Street Simi Valley, CA 93065 $497,000 1,296 sq. ft. 6,970 sq. ft. $383
2017-07-20 Single Family 2355 Gloryette Avenue Simi Valley, CA 93063 $559,000 1,125 sq. ft. 7,841 sq. ft. $497
2017-07-19 Single Family Mid Century 3804 Acorn Court Simi Valley, CA 93063 $545,000 1,616 sq. ft. 5,663 sq. ft. $337
2017-07-19 Single Family 2061 Lysander Avenue Simi Valley, CA 93065 $539,000 1,205 sq. ft. 6,970 sq. ft. $447
2017-07-18 Single Family 4119 Laredo Lane Simi Valley, CA 93063 $530,000 1,746 sq. ft. $304
2017-07-18 Single Family 2484 Marisa Place Simi Valley, CA 93065 $559,900 1,926 sq. ft. 6,534 sq. ft. $291
2017-07-18 Single Family 3365 Hilldale Avenue Simi Valley, CA 93063 $515,000 1,462 sq. ft. 6,534 sq. ft. $352
2017-07-18 Single Family 1805 Sequoia Avenue Simi Valley, CA 93063 $414,900 855 sq. ft. 3,049 sq. ft. $485
2017-07-18 Single Family 6017 Oldenberg Way Simi Valley, CA 93063 $465,000 1,608 sq. ft. 2,178 sq. ft. $289
2017-07-18 Single Family Colonial 1516 Earl Avenue Simi Valley, CA 93065 $530,000 1,725 sq. ft. 6,534 sq. ft. $307
2017-07-17 Single Family 6442 Twin Circle Lane Simi Valley, CA 93063 $325,000 1,025 sq. ft. 871 sq. ft. $317
2017-07-15 Single Family Ranch 3389 Ditch Road Simi Valley, CA 93063 $620,000 2,400 sq. ft. 145,926 sq. ft. $258
2017-07-15 Single Family Cape Cod 257 Shady Hills Court Simi Valley, CA 93065 $998,000 3,547 sq. ft. 15,246 sq. ft. $281
2017-07-14 Single Family Ranch 2283 Rebecca Street Simi Valley, CA 93063 $499,999 1,620 sq. ft. 10,019 sq. ft. $309
2017-07-14 Single Family Traditional 2140 Clancy Court Simi Valley, CA 93065 $729,500 2,983 sq. ft. 3,920 sq. ft. $245
2017-07-14 Single Family Traditional 3368 Heartland Avenue Simi Valley, CA 93065 $779,000 2,907 sq. ft. 5,663 sq. ft. $268
2017-07-14 Single Family 1111 Del Robles Place Simi Valley, CA 93063 $549,900 1,315 sq. ft. 4,792 sq. ft. $418
2017-07-14 Single Family Contemporary 3848 Lucas Court Simi Valley, CA 93063 $698,000 2,861 sq. ft. 4,792 sq. ft. $244
2017-07-14 Single Family 2202 Oakdale Circle Simi Valley, CA 93063 $515,000 1,463 sq. ft. 4,356 sq. ft. $352
2017-07-14 Single Family Traditional 2639 Bloom Street Simi Valley, CA 93063 $649,500 2,192 sq. ft. 5,663 sq. ft. $296
2017-07-14 Single Family Ranch 5518 Aurelia Street Simi Valley, CA 93063 $544,900 1,720 sq. ft. 6,534 sq. ft. $317
2017-07-14 Single Family Contemporary 678 Roosevelt Court Simi Valley, CA 93065 $750,000 2,157 sq. ft. 7,405 sq. ft. $348
2017-07-13 Single Family 1605 Emeric Avenue Simi Valley, CA 93065 $550,000 1,769 sq. ft. 8,276 sq. ft. $311
2017-07-13 Single Family 5388 Snowcreek Street Simi Valley, CA 93063 $494,900 1,463 sq. ft. 4,356 sq. ft. $338
2017-07-13 Single Family Traditional 592 Green Mountain Street Simi Valley, CA 93065 $949,000 3,639 sq. ft. 21,344 sq. ft. $261
2017-07-13 Single Family Modern; Ranch 1205 Cadiz Drive Simi Valley, CA 93065 $865,000 1,877 sq. ft. 19,166 sq. ft. $461
2017-07-13 Single Family Modern; Ranch 214 Longbranch Road Simi Valley, CA 93065 $849,999 1,723 sq. ft. 20,038 sq. ft. $493
2017-07-13 Single Family Colonial 3499 Mason Court Simi Valley, CA 93063 $669,500 2,378 sq. ft. 9,583 sq. ft. $282
2017-07-13 Single Family Traditional 6524 Twin Circle Lane Simi Valley, CA 93063 $345,000 1,137 sq. ft. 436 sq. ft. $303
2017-07-13 Single Family Spanish 2258 Swift Fox Court Simi Valley, CA 93065 $749,000 2,401 sq. ft. 6,534 sq. ft. $312
2017-07-13 Single Family 2749 Greenleaf Avenue Simi Valley, CA 93063 $599,000 1,891 sq. ft. 6,970 sq. ft. $317
2017-07-13 Single Family Traditional 2166 Stoneman Street Simi Valley, CA 93065 $614,950 2,028 sq. ft. 7,405 sq. ft. $303
2017-07-13 Single Family 2661 Nutmeg Circle Simi Valley, CA 93065 $699,000 2,705 sq. ft. 9,583 sq. ft. $258
2017-07-12 Single Family Architectural; French; Traditional 391 Pellburne Court Simi Valley, CA 93065 $799,950 2,500 sq. ft. 17,424 sq. ft. $320
2017-07-12 Single Family 2207 Lupin Street Simi Valley, CA 93065 $515,000 1,618 sq. ft. 6,970 sq. ft. $318
2017-07-12 Single Family 650 Hudspeth Street Simi Valley, CA 93065 $549,999 2,030 sq. ft. 12,197 sq. ft. $271
2017-07-12 Single Family 2338 Oak Haven Avenue Simi Valley, CA 93063 $564,900 1,623 sq. ft. 3,920 sq. ft. $348
2017-07-11 Single Family Traditional 844 Congressional Road Simi Valley, CA 93065 $578,000 1,539 sq. ft. 4,356 sq. ft. $376
2017-07-11 Single Family 2749 Forest Grove Lane Simi Valley, CA 93065 $1,250,000 4,322 sq. ft. 12,632 sq. ft. $289
2017-07-11 Single Family Ranch 3520 Royal Avenue Simi Valley, CA 93063 $490,000 1,233 sq. ft. 7,841 sq. ft. $397
2017-07-11 Single Family Contemporary 2246 Birch Glen Avenue Simi Valley, CA 93063 $389,950 1,299 sq. ft. 871 sq. ft. $300
2017-07-11 Single Family 2218 Birchglen Avenue Simi Valley, CA 93063 $409,990 1,299 sq. ft. 871 sq. ft. $316
2017-07-10 Single Family Mediterranean 277 Knoll Ridge Road Simi Valley, CA 93065 $924,900 3,348 sq. ft. 7,841 sq. ft. $276
2017-07-10 Single Family Ranch 4576 Adam Road Simi Valley, CA 93063 $670,000 1,494 sq. ft. 13,068 sq. ft. $448
2017-07-10 Single Family 544 Roosevelt Court Simi Valley, CA 93065 $699,000 2,389 sq. ft. 6,970 sq. ft. $293
2017-07-09 Single Family 2813 Fletcher Street Simi Valley, CA 93065 $459,000 1,040 sq. ft. 8,712 sq. ft. $441
2017-07-09 Single Family 2290 Bigelow Avenue Simi Valley, CA 93065 $509,000 1,650 sq. ft. 6,970 sq. ft. $308
2017-07-09 Single Family Craftsman 1918 Seasons Street Simi Valley, CA 93065 $829,950 2,984 sq. ft. 6,534 sq. ft. $278
2017-07-08 Single Family 2686 Danton Place Simi Valley, CA 93065 $539,000 1,310 sq. ft. 9,148 sq. ft. $411
2017-07-08 Single Family 2527 Phyllis Street Simi Valley, CA 93065 $575,000 1,729 sq. ft. 6,534 sq. ft. $333
2017-07-08 Single Family Mediterranean 3517 Sweetgrass Avenue Simi Valley, CA 93065 $849,900 2,984 sq. ft. 10,019 sq. ft. $285
2017-07-08 Single Family 3978 Goodwin Avenue Simi Valley, CA 93063 $537,000 1,462 sq. ft. 5,663 sq. ft. $367
2017-07-07 Single Family Ranch 1544 Darrah Avenue Simi Valley, CA 93063 $599,000 2,134 sq. ft. 8,712 sq. ft. $281
2017-07-07 Single Family 1442 Anderson Street Simi Valley, CA 93065 $599,900 2,050 sq. ft. 7,841 sq. ft. $293
2017-07-07 Single Family Mediterranean 209 Rangely Court Simi Valley, CA 93065 $1,199,000 4,140 sq. ft. 44,867 sq. ft. $290
2017-07-07 Single Family Ranch; Traditional 4062 Tucson Street Simi Valley, CA 93063 $689,999 2,912 sq. ft. 8,276 sq. ft. $237
2017-07-06 Single Family 945 Biscayne Palm Place Simi Valley, CA 93065 $719,000 2,435 sq. ft. 7,405 sq. ft. $295
2017-07-06 Single Family 2633 Night Jasmine Drive Simi Valley, CA 93065 $485,000 1,500 sq. ft. 1,307 sq. ft. $323
2017-07-06 Single Family 1818 Rory Lane Simi Valley, CA 93063 $415,000 1,437 sq. ft. 1,307 sq. ft. $289
2017-07-06 Single Family 236 Galway Lane Simi Valley, CA 93065 $699,000 2,763 sq. ft. 4,356 sq. ft. $253
2017-07-05 Single Family 4966 Shady Trail Street Simi Valley, CA 93063 $1,069,000 3,889 sq. ft. 11,761 sq. ft. $275
2017-07-03 Single Family Spanish 890 Congressional Road Simi Valley, CA 93065 $607,500 1,539 sq. ft. 5,227 sq. ft. $395
2017-07-03 Single Family 2248 Cordero Avenue Simi Valley, CA 93065 $469,900 1,286 sq. ft. 7,841 sq. ft. $365
2017-07-03 Single Family Traditional 1158 Cadiz Drive Simi Valley, CA 93065 $979,000 3,342 sq. ft. 20,038 sq. ft. $293
2017-07-01 Single Family 568 Comet Avenue Simi Valley, CA 93065 $984,278 4,121 sq. ft. 10,019 sq. ft. $239
2017-07-01 Single Family 235 Talbert Avenue Simi Valley, CA 93065 $864,384 2,535 sq. ft. 10,454 sq. ft. $341
2017-06-30 Single Family Colonial; Spanish 3727 Red Hawk Court Simi Valley, CA 93063 $979,900 3,577 sq. ft. 9,148 sq. ft. $274
2017-06-30 Single Family 1091 Appleton Road Simi Valley, CA 93065 $469,000 1,323 sq. ft. 6,970 sq. ft. $354
2017-06-30 Single Family Traditional 618 Verdemont Circle Simi Valley, CA 93065 $799,900 3,187 sq. ft. 8,712 sq. ft. $251
2017-06-30 Single Family 2558 Cloverleaf Lane Simi Valley, CA 93063 $539,950 1,878 sq. ft. 3,049 sq. ft. $288
2017-06-30 Single Family 1529 Patricia Simi Valley, CA 93065 $459,000 1,316 sq. ft. $349
2017-06-30 Single Family 1529 Patricia Avenue Simi Valley, CA 93065 $455,000 1,444 sq. ft. $315
2017-06-29 Single Family 607 Hooper Avenue Simi Valley, CA 93065 $525,000 1,493 sq. ft. 2,178 sq. ft. $352
2017-06-29 Single Family Villa 2037 Freesia Avenue Simi Valley, CA 93063 $509,950 1,494 sq. ft. 3,920 sq. ft. $341
2017-06-29 Single Family Cabin 1019 Alta Vista Road Simi Valley, CA 93063 $338,900 603 sq. ft. 8,712 sq. ft. $562
2017-06-29 Single Family Spanish 7858 Lilac Lane Simi Valley, CA 93063 $799,900 2,895 sq. ft. 48,787 sq. ft. $276
2017-06-29 Single Family Ranch 2363 Yosemite Avenue Simi Valley, CA 93063 $539,900 1,891 sq. ft. 7,405 sq. ft. $286
2017-06-28 Single Family 5635 Evening Sky Drive Simi Valley, CA 93063 $1,299,900 3,725 sq. ft. 21,780 sq. ft. $349
2017-06-28 Single Family Traditional 574 Oak Tree Court Simi Valley, CA 93065 $1,049,000 3,976 sq. ft. 11,326 sq. ft. $264
2017-06-28 Single Family Traditional 459 Willow Glen Circle Simi Valley, CA 93065 $799,000 2,917 sq. ft. 9,148 sq. ft. $274
2017-06-28 Single Family 2364 Royal Avenue Simi Valley, CA 93065 $395,000 1,414 sq. ft. 871 sq. ft. $279
2017-06-27 Single Family Traditional 2057 Atwater Avenue Simi Valley, CA 93063 $540,500 1,806 sq. ft. 6,534 sq. ft. $299
2017-06-27 Single Family Traditional 136 Forrester Court Simi Valley, CA 93065 $755,000 2,750 sq. ft. 5,663 sq. ft. $275
2017-06-27 Single Family Ranch 2195 Justin Avenue Simi Valley, CA 93065 $524,900 1,688 sq. ft. 6,534 sq. ft. $311
2017-06-27 Single Family 2425 Chandler Avenue Simi Valley, CA 93065 $399,999 1,376 sq. ft. 871 sq. ft. $291
2017-06-27 Single Family 3106 Penney Drive Simi Valley, CA 93063 $729,950 2,402 sq. ft. 8,276 sq. ft. $304
2017-06-27 Single Family 2229 Shreve Avenue Simi Valley, CA 93063 $549,900 1,866 sq. ft. 6,534 sq. ft. $295
2017-06-27 Single Family 5053 Woodbridge Lane Simi Valley, CA 93063 $599,900 2,052 sq. ft. 4,356 sq. ft. $292
2017-06-26 Single Family 2217 Royal Avenue Simi Valley, CA 93065 $499,999 1,195 sq. ft. 6,534 sq. ft. $418
2017-06-26 Single Family 531 Bluegrass Street Simi Valley, CA 93065 $1,099,900 2,728 sq. ft. 20,038 sq. ft. $403
2017-06-25 Single Family 4113 Eagle Flight Drive Simi Valley, CA 93065 $899,000 3,973 sq. ft. 7,841 sq. ft. $226
2017-06-25 Single Family Mediterranean 2216 Swift Fox Court Simi Valley, CA 93065 $759,000 2,401 sq. ft. 6,534 sq. ft. $316
2017-06-25 Single Family Traditional 2374 Keystone Street Simi Valley, CA 93063 $559,500 1,541 sq. ft. 7,405 sq. ft. $363
2017-06-25 Single Family 724 Greenbriar Avenue Simi Valley, CA 93065 $629,999 2,095 sq. ft. 13,068 sq. ft. $301
2017-06-22 Single Family 2444 Stow Street Simi Valley, CA 93063 $498,000 1,976 sq. ft. 3,049 sq. ft. $252
2017-06-22 Single Family Mediterranean 1124 Acapulco Avenue Simi Valley, CA 93065 $725,000 2,613 sq. ft. 10,019 sq. ft. $277
2017-06-22 Single Family 6412 Summit Village Lane Simi Valley, CA 93063 $599,999 2,242 sq. ft. $268
2017-06-22 Single Family 2264 Birch Glen Avenue Simi Valley, CA 93063 $439,900 1,428 sq. ft. 1,307 sq. ft. $308
2017-06-22 Single Family Traditional 885 Links View Drive Simi Valley, CA 93065 $579,000 1,457 sq. ft. 5,663 sq. ft. $397
2017-06-22 Single Family Traditional 2502 Aurora Lane Simi Valley, CA 93063 $589,000 2,052 sq. ft. 3,049 sq. ft. $287
2017-06-21 Single Family Traditional 3141 Geronimo Avenue Simi Valley, CA 93063 $765,000 2,488 sq. ft. 11,761 sq. ft. $307
2017-06-21 Single Family 6208 Tangelo Place Simi Valley, CA 93063 $565,000 1,823 sq. ft. 4,356 sq. ft. $310
2017-06-21 Single Family Mediterranean 3032 Ziron Avenue Simi Valley, CA 93065 $799,000 2,668 sq. ft. 6,534 sq. ft. $299
2017-06-21 Single Family 3742 Young Wolf Drive Simi Valley, CA 93065 $745,000 2,435 sq. ft. 7,405 sq. ft. $306
2017-06-20 Single Family 1917 Lakota Street Simi Valley, CA 93065 $899,900 3,909 sq. ft. 7,841 sq. ft. $230
2017-06-20 Single Family Traditional 67 Boulder Creek Road Simi Valley, CA 93065 $895,000 3,390 sq. ft. 6,534 sq. ft. $264
2017-06-20 Single Family 2006 Cheam Avenue Simi Valley, CA 93063 $671,000 2,811 sq. ft. 10,890 sq. ft. $239
2017-06-19 Single Family 5734 Velvet Oak Court Simi Valley, CA 93063 $1,149,950 4,162 sq. ft. 17,424 sq. ft. $276
2017-06-19 Single Family Ranch 3204 Waco Avenue Simi Valley, CA 93063 $635,000 2,381 sq. ft. 8,712 sq. ft. $267
2017-06-18 Single Family 2289 Sequoia Avenue Simi Valley, CA 93063 $509,000 1,651 sq. ft. 6,534 sq. ft. $308
2017-06-17 Single Family Ranch 6050 Malton Avenue Simi Valley, CA 93063 $569,000 1,826 sq. ft. 6,534 sq. ft. $312
2017-06-17 Single Family 2255 Fig Street Simi Valley, CA 93063 $500,000 1,724 sq. ft. 7,841 sq. ft. $290
2017-06-17 Single Family Cape Cod 1906 Rory Lane Simi Valley, CA 93063 $419,950 1,583 sq. ft. 1,307 sq. ft. $265
2017-06-17 Single Family 5711 Cochran Street Simi Valley, CA 93063 $475,000 1,976 sq. ft. 3,049 sq. ft. $240
2017-06-17 Single Family 3726 Red Hawk Court Simi Valley, CA 93063 $969,900 3,000 sq. ft. 14,810 sq. ft. $323
2017-06-15 Single Family 1617 Kay Avenue Simi Valley, CA 93063 $549,900 1,446 sq. ft. 6,970 sq. ft. $380
2017-06-15 Single Family 3617 Cochran Street Simi Valley, CA 93063 $489,000 1,229 sq. ft. 6,534 sq. ft. $398
2017-06-15 Single Family Traditional 360 Misty Falls Court Simi Valley, CA 93065 $685,000 2,495 sq. ft. 6,098 sq. ft. $275
2017-06-14 Single Family 893 Hemlock Ridge Court Simi Valley, CA 93065 $790,000 2,889 sq. ft. 17,424 sq. ft. $273
2017-06-14 Single Family Contemporary 1617 Kay Avenue Simi Valley, CA 93063 $562,500 1,695 sq. ft. 6,970 sq. ft. $332
2017-06-14 Single Family 6092 Cedar Street Simi Valley, CA 93063 $435,000 1,066 sq. ft. 1,307 sq. ft. $408
2017-06-14 Single Family Contemporary; Tudor 985 Lindamere Court Simi Valley, CA 93065 $798,000 3,622 sq. ft. 10,019 sq. ft. $220
2017-06-14 Single Family Traditional 2006 Sycamore Drive Simi Valley, CA 93065 $439,900 1,205 sq. ft. 7,841 sq. ft. $365
2017-06-13 Single Family Contemporary 2368 Elmdale Avenue Simi Valley, CA 93065 $615,000 3,089 sq. ft. 6,534 sq. ft. $199
2017-06-13 Single Family 2813 Wanda Avenue Simi Valley, CA 93065 $599,000 1,988 sq. ft. 6,534 sq. ft. $301
2017-06-13 Single Family 2961 Jadestone Avenue Simi Valley, CA 93063 $739,777 2,389 sq. ft. 6,970 sq. ft. $310
2017-06-12 Single Family Traditional 724 Dennis Avenue Simi Valley, CA 93065 $449,000 1,056 sq. ft. 8,712 sq. ft. $425
2017-06-12 Single Family Mediterranean 213 Golden Fern Court Simi Valley, CA 93065 $739,000 2,283 sq. ft. 9,583 sq. ft. $324
2017-06-12 Single Family 166 Sailwind Court Simi Valley, CA 93065 $609,950 1,800 sq. ft. 5,663 sq. ft. $339
2017-06-10 Single Family Other 581 Galloping Hill Road Simi Valley, CA 93065 $629,900 1,864 sq. ft. 4,792 sq. ft. $338
2017-06-10 Single Family Traditional 2069 Casual Court Simi Valley, CA 93065 $945,000 2,856 sq. ft. 22,651 sq. ft. $331
2017-06-09 Single Family 5926 Fearing Street Simi Valley, CA 93063 $575,000 1,826 sq. ft. 6,534 sq. ft. $315
2017-06-09 Single Family Spanish 406 Country Club Drive Simi Valley, CA 93065 $450,000 1,376 sq. ft. 871 sq. ft. $327
2017-06-09 Single Family Ranch 1111 Hacienda Drive Simi Valley, CA 93065 $1,049,000 3,048 sq. ft. 16,117 sq. ft. $344
2017-06-09 Single Family Spanish 548 Granite Hills Street Simi Valley, CA 93065 $799,000 2,207 sq. ft. 8,712 sq. ft. $362
2017-06-09 Single Family Mediterranean 105 Heath Meadow Place Simi Valley, CA 93065 $1,139,000 4,109 sq. ft. 10,890 sq. ft. $277
2017-06-08 Single Family Ranch 665 Languid Lane Simi Valley, CA 93065 $665,000 1,921 sq. ft. 23,958 sq. ft. $346
2017-06-08 Single Family 1232 Cypress Street Simi Valley, CA 93063 $450,000 1,000 sq. ft. 6,098 sq. ft. $450
2017-06-08 Single Family Contemporary 234 Clevenger Avenue Simi Valley, CA 93065 $1,074,000 3,153 sq. ft. 21,780 sq. ft. $341
2017-06-06 Single Family Ranch 1165 Mellow Lane Simi Valley, CA 93065 $949,900 2,490 sq. ft. 101,059 sq. ft. $381
2017-06-06 Single Family 649 Noble Road Simi Valley, CA 93065 $1,488,000 4,112 sq. ft. 25,265 sq. ft. $362
2017-06-05 Single Family Contemporary; Ranch 5450 Mildred Street Simi Valley, CA 93063 $587,999 1,835 sq. ft. 8,276 sq. ft. $320
2017-06-05 Single Family 1396 Southern Oak Avenue Simi Valley, CA 93063 $879,500 4,014 sq. ft. 15,682 sq. ft. $219
2017-06-05 Single Family Traditional 1518 Kane Avenue Simi Valley, CA 93065 $525,000 1,580 sq. ft. 6,534 sq. ft. $332
2017-06-03 Single Family 3051 Stonewood Street Simi Valley, CA 93063 $689,000 2,556 sq. ft. 8,712 sq. ft. $270
2017-06-02 Single Family 2195 Medina Avenue Simi Valley, CA 93063 $535,500 2,071 sq. ft. 6,534 sq. ft. $259
2017-06-02 Single Family Ranch 1340 Rambling Road Simi Valley, CA 93065 $799,950 1,714 sq. ft. 25,700 sq. ft. $467
2017-06-02 Single Family 517 Fairfield Road Simi Valley, CA 93065 $589,950 1,864 sq. ft. 4,356 sq. ft. $316
2017-06-02 Single Family 3428 Lockwood Court Simi Valley, CA 93063 $349,500 1,051 sq. ft. 1,307 sq. ft. $333
2017-06-01 Single Family Traditional 349 Longbranch Road Simi Valley, CA 93065 $919,000 2,626 sq. ft. 20,909 sq. ft. $350
2017-06-01 Single Family Contemporary 603 Twin Peaks Avenue Simi Valley, CA 93065 $674,900 2,088 sq. ft. 5,663 sq. ft. $323
2017-06-01 Single Family 912 Ventura Avenue Simi Valley, CA 93065 $445,000 1,170 sq. ft. 7,841 sq. ft. $380
2017-06-01 Single Family Bungalow; Contemporary 4015 Peoria Avenue Simi Valley, CA 93063 $924,998 2,277 sq. ft. 13,939 sq. ft. $406
2017-06-01 Single Family 1768Drive Rocking Horse Drive Simi Valley, CA 93065 $834,950 2,468 sq. ft. 26,572 sq. ft. $338
2017-06-01 Single Family 1386 Hidden Ranch Drive Simi Valley, CA 93063 $1,100,000 4,453 sq. ft. 8,712 sq. ft. $247
2017-06-01 Single Family 4066 Township Avenue Simi Valley, CA 93063 $656,500 2,209 sq. ft. 9,148 sq. ft. $297
2017-05-31 Single Family 1012 Poplar Court Simi Valley, CA 93065 $744,000 2,754 sq. ft. 8,712 sq. ft. $270
2017-05-31 Single Family Contemporary 2919 Estilita Way Simi Valley, CA 93063 $479,900 1,373 sq. ft. 1,307 sq. ft. $350
2017-05-31 Single Family 5829 Oak Knolls Road Simi Valley, CA 93063 $644,000 1,858 sq. ft. 16,988 sq. ft. $347
2017-05-30 Single Family Patio Home; Spanish; Traditional 6480 Hazel Circle Simi Valley, CA 93063 $609,000 1,814 sq. ft. 7,405 sq. ft. $336
2017-05-26 Single Family Other 2059 Pullman Avenue Simi Valley, CA 93063 $550,000 1,719 sq. ft. 5,227 sq. ft. $320
2017-05-26 Single Family 1290 Lundy Drive Simi Valley, CA 93065 $542,000 1,534 sq. ft. 10,019 sq. ft. $353
2017-05-25 Single Family Ranch 4408 Walnut Avenue Simi Valley, CA 93063 $534,950 1,434 sq. ft. 10,890 sq. ft. $373
2017-05-24 Single Family Contemporary 2162 Ardenwood Avenue Simi Valley, CA 93063 $499,900 1,217 sq. ft. 6,534 sq. ft. $411
2017-05-23 Single Family 1262 Lawrence Circle Simi Valley, CA 93065 $489,000 1,226 sq. ft. 7,841 sq. ft. $399
2017-05-23 Single Family 2234 Rolling River Lane Simi Valley, CA 93063 $459,950 1,644 sq. ft. 871 sq. ft. $280
2017-05-23 Single Family Traditional 635 Hazelwood Way Simi Valley, CA 93065 $477,000 1,579 sq. ft. 871 sq. ft. $302
2017-05-19 Single Family Mediterranean 5828 Indian Terrace Drive Simi Valley, CA 93063 $899,000 4,091 sq. ft. 6,534 sq. ft. $220
2017-05-19 Single Family Mediterranean 635 Hazelwood Way Simi Valley, CA 93065 $515,000 1,809 sq. ft. 871 sq. ft. $285
2017-05-17 Single Family 5825 Indian Pointe Drive Simi Valley, CA 93063 $894,999 3,632 sq. ft. 8,712 sq. ft. $246
2017-05-16 Single Family 1187 Corto Street Simi Valley, CA 93065 $538,000 1,508 sq. ft. 7,841 sq. ft. $357
2017-05-15 Single Family 1120 Rambling Road Simi Valley, CA 93065 $739,950 2,081 sq. ft. 20,038 sq. ft. $356
2017-05-13 Single Family Other 1079 Katherine Road Simi Valley, CA 93063 $799,900 2,364 sq. ft. 23,522 sq. ft. $338
2017-05-12 Single Family 1826 Pamela Court Simi Valley, CA 93065 $543,000 1,310 sq. ft. 5,663 sq. ft. $415
2017-05-12 Single Family Ranch 1177 Erringer Road Simi Valley, CA 93065 $490,000 1,058 sq. ft. 8,276 sq. ft. $463
2017-05-11 Single Family Traditional 2068 Belhaven Avenue Simi Valley, CA 93063 $630,000 1,998 sq. ft. 6,534 sq. ft. $315
2017-05-11 Single Family Ranch 1631 Yosemite Avenue Simi Valley, CA 93063 $540,000 1,612 sq. ft. 5,227 sq. ft. $335
2017-05-10 Single Family Traditional 2148 Belhaven Avenue Simi Valley, CA 93063 $549,900 1,420 sq. ft. 6,970 sq. ft. $387
2017-05-08 Single Family Mediterranean 605 Noble Road Simi Valley, CA 93065 $1,299,000 4,112 sq. ft. 30,056 sq. ft. $316
2017-05-05 Single Family Mediterranean 108 Wildlife Drive Simi Valley, CA 93065 $1,179,000 3,193 sq. ft. 18,295 sq. ft. $369
2017-05-05 Single Family Ranch 4204 Apricot Road Simi Valley, CA 93063 $574,999 1,661 sq. ft. 12,197 sq. ft. $346
2017-05-05 Single Family 5680 Los Angeles Avenue Simi Valley, CA 93063 $379,950 1,469 sq. ft. 871 sq. ft. $259
2017-05-05 Single Family Traditional 106 Park Hill Road Simi Valley, CA 93065 $769,900 2,618 sq. ft. 4,792 sq. ft. $294
2017-05-05 Single Family 2149 Heather Street Simi Valley, CA 93065 $375,000 1,278 sq. ft. 7,405 sq. ft. $293
2017-05-04 Single Family 6626 Whitewood Street Simi Valley, CA 93063 $549,900 1,943 sq. ft. 6,534 sq. ft. $283
2017-05-03 Single Family Mediterranean 6320 Del Robles Drive Simi Valley, CA 93063 $749,000 2,907 sq. ft. 13,068 sq. ft. $258
2017-05-02 Single Family 702 Greenbriar Avenue Simi Valley, CA 93065 $1,199,950 3,154 sq. ft. 132,858 sq. ft. $380
2017-05-02 Single Family Spanish 4294 Presidio Drive Simi Valley, CA 93063 $899,000 3,458 sq. ft. 9,583 sq. ft. $260
2017-05-02 Single Family Spanish 4298 Presidio Drive Simi Valley, CA 93063 $899,000 3,408 sq. ft. 8,712 sq. ft. $264
2017-04-28 Single Family Ranch 4120 Gertrude Street Simi Valley, CA 93063 $499,000 1,080 sq. ft. 6,970 sq. ft. $462
2017-04-27 Single Family Contemporary 2650 Night Jasmine Drive Simi Valley, CA 93065 $479,000 1,619 sq. ft. 1,307 sq. ft. $296
2017-04-27 Single Family 2110 Sequoia Simi Valley, CA 93063 $445,000 1,160 sq. ft. 5,227 sq. ft. $384
2017-04-27 Single Family Southwestern 2052 Chenault Place Simi Valley, CA 93065 $639,108 1,950 sq. ft. 7,405 sq. ft. $328
2017-04-26 Single Family Contemporary; Traditional 3535 Green Pine Place Simi Valley, CA 93065 $789,000 2,465 sq. ft. 12,197 sq. ft. $320
2017-04-17 Single Family 5718 Oak Knolls Road Simi Valley, CA 93063 $589,000 2,201 sq. ft. 6,098 sq. ft. $268
2017-04-15 Single Family 2043 Marter Avenue Simi Valley, CA 93065 $519,900 1,650 sq. ft. 6,534 sq. ft. $315
2017-04-13 Single Family 1559 Blackstock Avenue Simi Valley, CA 93065 $530,000 2,134 sq. ft. 7,841 sq. ft. $248
2017-04-12 Single Family 1029 Gaston Road Simi Valley, CA 93063 $799,900 1,687 sq. ft. 22,651 sq. ft. $474
2017-04-06 Single Family 4965 Thorn Ridge Court Simi Valley, CA 93063 $1,269,900 5,092 sq. ft. 23,087 sq. ft. $249
2017-04-05 Single Family 2886 Hollister Street Simi Valley, CA 93065 $529,900 2,297 sq. ft. 7,405 sq. ft. $231
2017-04-04 Single Family 1576 Graham Street Simi Valley, CA 93065 $488,000 1,227 sq. ft. 7,841 sq. ft. $398
2017-04-02 Single Family Ranch 1664 Kearney Avenue Simi Valley, CA 93065 $499,950 1,352 sq. ft. 7,841 sq. ft. $370
2017-03-31 Single Family Spanish 1013 Scioto Circle Simi Valley, CA 93065 $650,000 1,842 sq. ft. 6,970 sq. ft. $353
2017-03-31 Single Family 1416 Rio Vista Court Simi Valley, CA 93065 $559,500 1,655 sq. ft. 7,405 sq. ft. $338
2017-03-30 Single Family French Country 2628 Rudolph Drive Simi Valley, CA 93065 $979,000 3,042 sq. ft. 14,810 sq. ft. $322
2017-03-29 Single Family Spanish 361 White Bark Lane Simi Valley, CA 93065 $765,500 2,414 sq. ft. 6,970 sq. ft. $317
2017-03-28 Single Family 1305 Southern Oak Avenue Simi Valley, CA 93063 $899,999 4,208 sq. ft. 8,276 sq. ft. $214
2017-03-28 Single Family 1135 Mellow Lane Simi Valley, CA 93065 $998,000 2,664 sq. ft. 162,479 sq. ft. $375
2017-03-22 Single Family 2744 Royal Avenue Simi Valley, CA 93065 $499,900 1,691 sq. ft. 7,405 sq. ft. $296
2017-03-16 Single Family 5352 Willow Oak Street Simi Valley, CA 93063 $779,950 3,243 sq. ft. 12,197 sq. ft. $241
2017-03-15 Single Family 2531 Radford Court Simi Valley, CA 93063 $584,950 2,438 sq. ft. 6,534 sq. ft. $240
2017-03-15 Single Family Other 671 Sandy Avenue Simi Valley, CA 93065 $529,000 1,954 sq. ft. 7,405 sq. ft. $271
2017-03-12 Single Family Other 3789 Horizon Ridge Court Simi Valley, CA 93063 $849,999 2,955 sq. ft. 9,148 sq. ft. $288
2017-03-09 Single Family 2345 Jonesboro Avenue Simi Valley, CA 93063 $494,900 1,428 sq. ft. 6,970 sq. ft. $347
2017-03-07 Single Family 221 Fawn Valley Court Simi Valley, CA 93065 $1,059,000 3,547 sq. ft. 11,761 sq. ft. $299
2017-03-05 Single Family Tuscan 608 Hailey Court Simi Valley, CA 93065 $2,745,000 5,755 sq. ft. 1,756,775 sq. ft. $477
2017-02-27 Single Family 951 Oakmont Court Simi Valley, CA 93065 $789,000 2,062 sq. ft. 23,522 sq. ft. $383
2017-02-22 Single Family Contemporary 742 Camden Vista Court Simi Valley, CA 93065 $979,000 3,483 sq. ft. 18,731 sq. ft. $281
2017-01-31 Single Family Spanish 585 Comet Avenue Simi Valley, CA 93065 $788,546 2,535 sq. ft. 15,246 sq. ft. $311
2017-01-31 Single Family Spanish 588 Comet Avenue Simi Valley, CA 93065 $974,278 4,121 sq. ft. 10,019 sq. ft. $236
2017-01-17 Single Family Ranch 1573 Deanna Avenue Simi Valley, CA 93063 $470,000 1,632 sq. ft. 6,970 sq. ft. $288
2017-01-12 Single Family Mediterranean 2835 Big Sky Place Simi Valley, CA 93065 $898,000 3,229 sq. ft. 9,583 sq. ft. $278
2017-01-12 Single Family Farm House; Ranch 1816 Rocking Horse Drive Simi Valley, CA 93065 $1,120,000 3,828 sq. ft. 21,344 sq. ft. $293
2016-02-22 Single Family 3144 Sycamore Drive Simi Valley, CA 93065 $949,000 4,200 sq. ft. 91,040 sq. ft. $226